sensor_id;sensor_type;location;lat;lon;timestamp;pressure;altitude;pressure_sealevel;temperature;humidity
73453;BME280;61687;56.232;43.854;2023-07-20T00:01:13;98836.22;;;16.31;74.61
73453;BME280;61687;56.232;43.854;2023-07-20T00:03:39;98844.19;;;16.29;74.38
73453;BME280;61687;56.232;43.854;2023-07-20T00:06:05;98846.28;;;16.25;74.35
73453;BME280;61687;56.232;43.854;2023-07-20T00:08:31;98858.44;;;16.28;74.16
73453;BME280;61687;56.232;43.854;2023-07-20T00:10:57;98842.50;;;16.19;74.04
73453;BME280;61687;56.232;43.854;2023-07-20T00:13:24;98843.06;;;16.14;74.22
73453;BME280;61687;56.232;43.854;2023-07-20T00:15:51;98846.63;;;16.14;74.13
73453;BME280;61687;56.232;43.854;2023-07-20T00:18:17;98842.31;;;16.13;73.86
73453;BME280;61687;56.232;43.854;2023-07-20T00:20:47;98836.00;;;16.13;73.82
73453;BME280;61687;56.232;43.854;2023-07-20T00:23:13;98841.94;;;16.11;73.64
73453;BME280;61687;56.232;43.854;2023-07-20T00:25:39;98826.16;;;16.12;73.53
73453;BME280;61687;56.232;43.854;2023-07-20T00:28:05;98844.28;;;16.13;73.75
73453;BME280;61687;56.232;43.854;2023-07-20T00:30:31;98854.69;;;16.09;73.50
73453;BME280;61687;56.232;43.854;2023-07-20T00:32:57;98841.19;;;16.11;73.28
73453;BME280;61687;56.232;43.854;2023-07-20T00:35:23;98840.53;;;16.07;73.53
73453;BME280;61687;56.232;43.854;2023-07-20T00:37:50;98843.41;;;16.03;73.40
73453;BME280;61687;56.232;43.854;2023-07-20T00:40:15;98839.75;;;16.06;73.39
73453;BME280;61687;56.232;43.854;2023-07-20T00:42:43;98839.66;;;16.10;73.31
73453;BME280;61687;56.232;43.854;2023-07-20T00:45:09;98832.91;;;16.11;73.46
73453;BME280;61687;56.232;43.854;2023-07-20T00:47:36;98839.66;;;16.10;73.26
73453;BME280;61687;56.232;43.854;2023-07-20T00:50:02;98840.53;;;16.07;73.11
73453;BME280;61687;56.232;43.854;2023-07-20T00:52:32;98833.47;;;16.06;72.95
73453;BME280;61687;56.232;43.854;2023-07-20T00:54:58;98845.16;;;16.10;72.99
73453;BME280;61687;56.232;43.854;2023-07-20T00:57:25;98837.97;;;16.12;72.90
73453;BME280;61687;56.232;43.854;2023-07-20T00:59:51;98836.88;;;16.10;72.84
73453;BME280;61687;56.232;43.854;2023-07-20T01:02:17;98841.28;;;16.07;72.92
73453;BME280;61687;56.232;43.854;2023-07-20T01:04:43;98844.03;;;15.94;73.10
73453;BME280;61687;56.232;43.854;2023-07-20T01:07:26;98847.34;;;15.89;73.77
73453;BME280;61687;56.232;43.854;2023-07-20T01:10:12;98841.91;;;15.85;74.23
73453;BME280;61687;56.232;43.854;2023-07-20T01:12:42;98851.31;;;15.88;74.36
73453;BME280;61687;56.232;43.854;2023-07-20T01:15:08;98851.06;;;15.82;74.79
73453;BME280;61687;56.232;43.854;2023-07-20T01:17:35;98847.31;;;15.76;75.14
73453;BME280;61687;56.232;43.854;2023-07-20T01:20:02;98851.72;;;15.73;75.36
73453;BME280;61687;56.232;43.854;2023-07-20T01:31:21;98849.34;;;15.59;75.79
73453;BME280;61687;56.232;43.854;2023-07-20T01:33:50;98858.34;;;15.63;75.60
73453;BME280;61687;56.232;43.854;2023-07-20T01:36:18;98862.19;;;15.66;75.67
73453;BME280;61687;56.232;43.854;2023-07-20T01:38:46;98863.06;;;15.63;75.56
73453;BME280;61687;56.232;43.854;2023-07-20T01:41:12;98864.19;;;15.65;75.63
73453;BME280;61687;56.232;43.854;2023-07-20T01:43:38;98861.44;;;15.65;75.38
73453;BME280;61687;56.232;43.854;2023-07-20T01:46:05;98859.34;;;15.69;75.31
73453;BME280;61687;56.232;43.854;2023-07-20T01:48:31;98858.13;;;15.70;75.20
73453;BME280;61687;56.232;43.854;2023-07-20T01:50:57;98864.47;;;15.84;74.70
73453;BME280;61687;56.232;43.854;2023-07-20T01:53:23;98863.16;;;15.88;74.50
73453;BME280;61687;56.232;43.854;2023-07-20T01:55:49;98868.56;;;15.92;74.51
73453;BME280;61687;56.232;43.854;2023-07-20T01:58:15;98862.16;;;15.95;74.04
73453;BME280;61687;56.232;43.854;2023-07-20T02:00:41;98865.94;;;16.01;74.06
73453;BME280;61687;56.232;43.854;2023-07-20T02:03:07;98873.56;;;16.10;73.80
73453;BME280;61687;56.232;43.854;2023-07-20T02:05:32;98874.34;;;16.11;73.39
73453;BME280;61687;56.232;43.854;2023-07-20T02:07:58;98873.38;;;16.17;73.19
73453;BME280;61687;56.232;43.854;2023-07-20T02:10:24;98862.19;;;16.21;73.09
73453;BME280;61687;56.232;43.854;2023-07-20T02:12:50;98870.81;;;16.23;72.63
73453;BME280;61687;56.232;43.854;2023-07-20T02:15:17;98870.28;;;16.28;72.41
73453;BME280;61687;56.232;43.854;2023-07-20T02:17:44;98868.16;;;16.33;72.16
73453;BME280;61687;56.232;43.854;2023-07-20T02:20:11;98864.09;;;16.37;72.05
73453;BME280;61687;56.232;43.854;2023-07-20T02:22:38;98877.44;;;16.39;71.90
73453;BME280;61687;56.232;43.854;2023-07-20T02:25:05;98872.91;;;16.32;71.91
73453;BME280;61687;56.232;43.854;2023-07-20T02:27:36;98874.59;;;16.29;71.68
73453;BME280;61687;56.232;43.854;2023-07-20T02:30:03;98874.78;;;16.22;71.94
73453;BME280;61687;56.232;43.854;2023-07-20T02:32:36;98875.78;;;16.02;71.91
73453;BME280;61687;56.232;43.854;2023-07-20T02:35:04;98875.44;;;16.00;72.20
73453;BME280;61687;56.232;43.854;2023-07-20T02:37:32;98880.75;;;15.95;71.97
73453;BME280;61687;56.232;43.854;2023-07-20T02:39:58;98884.41;;;15.92;72.26
73453;BME280;61687;56.232;43.854;2023-07-20T02:42:24;98878.94;;;15.88;72.30
73453;BME280;61687;56.232;43.854;2023-07-20T02:44:52;98895.78;;;15.94;72.25
73453;BME280;61687;56.232;43.854;2023-07-20T02:47:18;98888.59;;;15.96;72.35
73453;BME280;61687;56.232;43.854;2023-07-20T02:49:44;98894.25;;;16.06;71.98
73453;BME280;61687;56.232;43.854;2023-07-20T02:52:10;98892.78;;;16.01;71.69
73453;BME280;61687;56.232;43.854;2023-07-20T02:54:36;98890.59;;;16.09;71.61
73453;BME280;61687;56.232;43.854;2023-07-20T02:57:03;98896.38;;;16.14;71.53
73453;BME280;61687;56.232;43.854;2023-07-20T02:59:28;98903.63;;;16.08;71.29
73453;BME280;61687;56.232;43.854;2023-07-20T03:01:56;98899.22;;;16.11;71.35
73453;BME280;61687;56.232;43.854;2023-07-20T03:04:25;98897.78;;;16.19;71.15
73453;BME280;61687;56.232;43.854;2023-07-20T03:06:51;98894.13;;;16.22;70.87
73453;BME280;61687;56.232;43.854;2023-07-20T03:09:17;98895.59;;;16.40;70.60
73453;BME280;61687;56.232;43.854;2023-07-20T03:11:43;98904.88;;;16.46;70.45
73453;BME280;61687;56.232;43.854;2023-07-20T03:14:11;98893.03;;;16.58;69.89
73453;BME280;61687;56.232;43.854;2023-07-20T03:16:38;98898.25;;;16.56;69.43
73453;BME280;61687;56.232;43.854;2023-07-20T03:19:04;98906.19;;;16.67;69.41
73453;BME280;61687;56.232;43.854;2023-07-20T03:21:30;98905.75;;;16.69;69.57
73453;BME280;61687;56.232;43.854;2023-07-20T03:23:59;98911.06;;;16.76;68.87
73453;BME280;61687;56.232;43.854;2023-07-20T03:26:25;98918.13;;;16.77;68.79
73453;BME280;61687;56.232;43.854;2023-07-20T03:28:51;98924.97;;;16.85;68.75
73453;BME280;61687;56.232;43.854;2023-07-20T03:31:20;98930.53;;;16.98;68.59
73453;BME280;61687;56.232;43.854;2023-07-20T03:33:46;98936.16;;;17.08;68.32
73453;BME280;61687;56.232;43.854;2023-07-20T03:36:11;98935.72;;;17.09;67.79
73453;BME280;61687;56.232;43.854;2023-07-20T03:38:37;98932.16;;;17.09;67.87
73453;BME280;61687;56.232;43.854;2023-07-20T03:41:03;98933.72;;;17.10;67.48
73453;BME280;61687;56.232;43.854;2023-07-20T03:43:29;98933.38;;;17.08;67.32
73453;BME280;61687;56.232;43.854;2023-07-20T03:45:55;98935.59;;;17.13;67.44
73453;BME280;61687;56.232;43.854;2023-07-20T03:48:24;98950.28;;;17.23;66.78
73453;BME280;61687;56.232;43.854;2023-07-20T03:50:53;98940.97;;;17.29;66.77
73453;BME280;61687;56.232;43.854;2023-07-20T03:53:19;98936.13;;;17.21;66.95
73453;BME280;61687;56.232;43.854;2023-07-20T03:55:50;98937.25;;;17.23;67.03
73453;BME280;61687;56.232;43.854;2023-07-20T03:58:17;98941.66;;;17.21;66.79
73453;BME280;61687;56.232;43.854;2023-07-20T04:00:48;98952.84;;;17.30;66.82
73453;BME280;61687;56.232;43.854;2023-07-20T04:03:14;98944.84;;;17.32;66.73
73453;BME280;61687;56.232;43.854;2023-07-20T04:05:40;98953.28;;;17.28;66.93
73453;BME280;61687;56.232;43.854;2023-07-20T04:08:07;98944.44;;;17.21;66.99
73453;BME280;61687;56.232;43.854;2023-07-20T04:10:32;98943.41;;;17.27;67.35
73453;BME280;61687;56.232;43.854;2023-07-20T04:12:59;98942.41;;;17.34;66.90
73453;BME280;61687;56.232;43.854;2023-07-20T04:15:25;98948.91;;;17.40;66.57
73453;BME280;61687;56.232;43.854;2023-07-20T04:17:51;98940.53;;;17.31;66.51
73453;BME280;61687;56.232;43.854;2023-07-20T04:20:17;98937.78;;;17.31;66.65
73453;BME280;61687;56.232;43.854;2023-07-20T04:22:44;98945.50;;;17.36;66.86
73453;BME280;61687;56.232;43.854;2023-07-20T04:25:12;98947.94;;;17.34;66.75
73453;BME280;61687;56.232;43.854;2023-07-20T04:27:38;98952.38;;;17.31;66.90
73453;BME280;61687;56.232;43.854;2023-07-20T04:30:07;98949.72;;;17.28;66.90
73453;BME280;61687;56.232;43.854;2023-07-20T04:32:33;98950.06;;;17.30;67.38
73453;BME280;61687;56.232;43.854;2023-07-20T04:35:05;98958.53;;;17.13;67.58
73453;BME280;61687;56.232;43.854;2023-07-20T04:37:31;98959.19;;;17.05;67.78
73453;BME280;61687;56.232;43.854;2023-07-20T04:39:58;98964.41;;;17.02;67.77
73453;BME280;61687;56.232;43.854;2023-07-20T04:42:24;98964.94;;;17.10;67.75
73453;BME280;61687;56.232;43.854;2023-07-20T04:44:50;98967.03;;;17.06;67.87
73453;BME280;61687;56.232;43.854;2023-07-20T04:47:16;98970.69;;;17.16;67.43
73453;BME280;61687;56.232;43.854;2023-07-20T04:49:42;98960.16;;;17.24;67.09
73453;BME280;61687;56.232;43.854;2023-07-20T04:52:08;98966.69;;;17.30;67.13
73453;BME280;61687;56.232;43.854;2023-07-20T04:54:34;98966.44;;;17.37;66.57
73453;BME280;61687;56.232;43.854;2023-07-20T04:56:59;98970.63;;;17.42;66.70
73453;BME280;61687;56.232;43.854;2023-07-20T04:59:26;98961.91;;;17.66;65.88
73453;BME280;61687;56.232;43.854;2023-07-20T05:01:52;98969.53;;;17.74;65.45
73453;BME280;61687;56.232;43.854;2023-07-20T05:04:18;98971.72;;;17.80;65.67
73453;BME280;61687;56.232;43.854;2023-07-20T05:06:44;98970.16;;;18.01;65.14
73453;BME280;61687;56.232;43.854;2023-07-20T05:09:11;98967.75;;;17.90;65.12
73453;BME280;61687;56.232;43.854;2023-07-20T05:11:38;98964.50;;;18.05;65.13
73453;BME280;61687;56.232;43.854;2023-07-20T05:14:06;98966.03;;;18.28;64.61
73453;BME280;61687;56.232;43.854;2023-07-20T05:16:32;98966.00;;;18.50;64.03
73453;BME280;61687;56.232;43.854;2023-07-20T05:19:02;98972.25;;;18.73;63.61
73453;BME280;61687;56.232;43.854;2023-07-20T05:21:28;98965.19;;;18.81;62.96
73453;BME280;61687;56.232;43.854;2023-07-20T05:23:54;98967.69;;;18.88;62.65
73453;BME280;61687;56.232;43.854;2023-07-20T05:26:20;98966.03;;;19.00;62.77
73453;BME280;61687;56.232;43.854;2023-07-20T05:28:46;98962.81;;;19.11;62.63
73453;BME280;61687;56.232;43.854;2023-07-20T05:31:12;98964.69;;;19.14;62.39
73453;BME280;61687;56.232;43.854;2023-07-20T05:33:38;98952.34;;;19.15;62.40
73453;BME280;61687;56.232;43.854;2023-07-20T05:36:04;98957.00;;;19.28;62.25
73453;BME280;61687;56.232;43.854;2023-07-20T05:38:30;98951.31;;;19.41;61.72
73453;BME280;61687;56.232;43.854;2023-07-20T05:40:59;98965.34;;;19.56;62.18
73453;BME280;61687;56.232;43.854;2023-07-20T05:43:29;98953.94;;;19.63;61.00
73453;BME280;61687;56.232;43.854;2023-07-20T05:45:55;98957.63;;;19.69;61.38
73453;BME280;61687;56.232;43.854;2023-07-20T05:48:21;98950.03;;;19.88;61.08
73453;BME280;61687;56.232;43.854;2023-07-20T05:50:47;98954.69;;;19.92;60.94
73453;BME280;61687;56.232;43.854;2023-07-20T05:53:13;98960.22;;;20.10;60.75
73453;BME280;61687;56.232;43.854;2023-07-20T05:55:39;98957.53;;;20.35;60.40
73453;BME280;61687;56.232;43.854;2023-07-20T05:58:06;98949.34;;;20.31;59.20
73453;BME280;61687;56.232;43.854;2023-07-20T06:00:32;98953.81;;;20.38;59.80
73453;BME280;61687;56.232;43.854;2023-07-20T06:02:58;98959.13;;;20.17;58.53
73453;BME280;61687;56.232;43.854;2023-07-20T06:05:24;98956.81;;;20.15;58.95
73453;BME280;61687;56.232;43.854;2023-07-20T06:07:50;98965.59;;;20.23;59.03
73453;BME280;61687;56.232;43.854;2023-07-20T06:10:17;98970.91;;;20.02;59.15
73453;BME280;61687;56.232;43.854;2023-07-20T06:12:45;98972.47;;;19.85;60.07
73453;BME280;61687;56.232;43.854;2023-07-20T06:15:25;98979.84;;;19.60;60.14
73453;BME280;61687;56.232;43.854;2023-07-20T06:17:51;98983.13;;;19.58;60.52
73453;BME280;61687;56.232;43.854;2023-07-20T06:20:17;98977.09;;;19.69;60.57
73453;BME280;61687;56.232;43.854;2023-07-20T06:22:44;98976.63;;;19.80;59.43
73453;BME280;61687;56.232;43.854;2023-07-20T06:25:11;98970.94;;;19.93;59.47
73453;BME280;61687;56.232;43.854;2023-07-20T06:27:37;98977.09;;;19.97;59.55
73453;BME280;61687;56.232;43.854;2023-07-20T06:30:03;98974.91;;;20.01;59.57
73453;BME280;61687;56.232;43.854;2023-07-20T06:32:30;98973.66;;;20.21;59.45
73453;BME280;61687;56.232;43.854;2023-07-20T06:34:56;98979.41;;;19.99;58.92
73453;BME280;61687;56.232;43.854;2023-07-20T06:37:22;98977.41;;;20.09;59.58
73453;BME280;61687;56.232;43.854;2023-07-20T06:39:48;98977.03;;;20.25;59.38
73453;BME280;61687;56.232;43.854;2023-07-20T06:42:14;98985.47;;;20.59;58.77
73453;BME280;61687;56.232;43.854;2023-07-20T06:44:40;98990.78;;;20.91;57.92
73453;BME280;61687;56.232;43.854;2023-07-20T06:47:06;98991.66;;;20.97;57.04
73453;BME280;61687;56.232;43.854;2023-07-20T06:49:32;99002.31;;;20.98;56.81
73453;BME280;61687;56.232;43.854;2023-07-20T06:51:58;99005.00;;;20.93;56.50
73453;BME280;61687;56.232;43.854;2023-07-20T06:54:26;98989.31;;;21.05;56.36
73453;BME280;61687;56.232;43.854;2023-07-20T06:56:52;98985.78;;;20.95;56.10
73453;BME280;61687;56.232;43.854;2023-07-20T06:59:18;98990.03;;;20.71;56.27
73453;BME280;61687;56.232;43.854;2023-07-20T07:01:44;99003.75;;;20.32;56.82
73453;BME280;61687;56.232;43.854;2023-07-20T07:04:10;99007.63;;;20.35;56.95
73453;BME280;61687;56.232;43.854;2023-07-20T07:06:36;98989.41;;;20.34;56.17
73453;BME280;61687;56.232;43.854;2023-07-20T07:09:03;98997.88;;;20.39;56.69
73453;BME280;61687;56.232;43.854;2023-07-20T07:11:29;99004.44;;;20.70;56.14
73453;BME280;61687;56.232;43.854;2023-07-20T07:13:56;99017.31;;;21.01;55.83
73453;BME280;61687;56.232;43.854;2023-07-20T07:16:22;99004.25;;;21.16;55.15
73453;BME280;61687;56.232;43.854;2023-07-20T07:18:50;99007.91;;;21.23;55.52
73453;BME280;61687;56.232;43.854;2023-07-20T07:21:16;99013.13;;;21.30;55.43
73453;BME280;61687;56.232;43.854;2023-07-20T07:23:43;99010.63;;;21.32;55.49
73453;BME280;61687;56.232;43.854;2023-07-20T07:26:11;99019.00;;;21.32;54.67
73453;BME280;61687;56.232;43.854;2023-07-20T07:28:37;98999.81;;;21.34;55.03
73453;BME280;61687;56.232;43.854;2023-07-20T07:31:07;99004.34;;;21.47;53.75
73453;BME280;61687;56.232;43.854;2023-07-20T07:33:33;99011.16;;;21.45;53.02
73453;BME280;61687;56.232;43.854;2023-07-20T07:36:02;99006.91;;;21.35;53.82
73453;BME280;61687;56.232;43.854;2023-07-20T07:38:31;99025.81;;;21.31;53.97
73453;BME280;61687;56.232;43.854;2023-07-20T07:40:58;99023.03;;;21.31;54.56
73453;BME280;61687;56.232;43.854;2023-07-20T07:43:24;99030.75;;;21.36;54.36
73453;BME280;61687;56.232;43.854;2023-07-20T07:45:50;99021.66;;;21.51;53.88
73453;BME280;61687;56.232;43.854;2023-07-20T07:48:16;99035.78;;;21.47;53.18
73453;BME280;61687;56.232;43.854;2023-07-20T07:50:42;99047.47;;;21.36;53.34
73453;BME280;61687;56.232;43.854;2023-07-20T07:53:08;99045.88;;;21.44;53.65
73453;BME280;61687;56.232;43.854;2023-07-20T07:55:35;99041.16;;;21.51;53.59
73453;BME280;61687;56.232;43.854;2023-07-20T07:58:02;99033.88;;;21.53;52.27
73453;BME280;61687;56.232;43.854;2023-07-20T08:00:28;99031.75;;;21.72;52.19
73453;BME280;61687;56.232;43.854;2023-07-20T08:02:54;99030.75;;;22.00;50.86
73453;BME280;61687;56.232;43.854;2023-07-20T08:05:20;99039.16;;;22.15;50.11
73453;BME280;61687;56.232;43.854;2023-07-20T08:07:46;99045.22;;;22.28;50.43
73453;BME280;61687;56.232;43.854;2023-07-20T08:10:12;99040.50;;;22.20;50.49
73453;BME280;61687;56.232;43.854;2023-07-20T08:12:39;99046.59;;;22.18;51.24
73453;BME280;61687;56.232;43.854;2023-07-20T08:15:05;99048.41;;;22.21;50.92
73453;BME280;61687;56.232;43.854;2023-07-20T08:17:33;99047.91;;;22.08;49.67
73453;BME280;61687;56.232;43.854;2023-07-20T08:20:02;99053.38;;;22.02;49.23
73453;BME280;61687;56.232;43.854;2023-07-20T08:22:31;99060.94;;;21.86;48.83
73453;BME280;61687;56.232;43.854;2023-07-20T08:24:57;99063.25;;;21.88;48.61
73453;BME280;61687;56.232;43.854;2023-07-20T08:27:22;99056.66;;;22.00;48.59
73453;BME280;61687;56.232;43.854;2023-07-20T08:29:48;99064.75;;;22.13;49.27
73453;BME280;61687;56.232;43.854;2023-07-20T08:32:15;99065.63;;;22.20;47.74
73453;BME280;61687;56.232;43.854;2023-07-20T08:34:42;99071.22;;;22.20;47.67
73453;BME280;61687;56.232;43.854;2023-07-20T08:37:08;99076.97;;;22.16;48.30
73453;BME280;61687;56.232;43.854;2023-07-20T08:39:35;99078.91;;;22.25;48.09
73453;BME280;61687;56.232;43.854;2023-07-20T08:42:02;99071.78;;;22.39;47.59
73453;BME280;61687;56.232;43.854;2023-07-20T08:44:36;99080.41;;;22.50;47.49
73453;BME280;61687;56.232;43.854;2023-07-20T08:47:04;99070.84;;;22.42;47.99
73453;BME280;61687;56.232;43.854;2023-07-20T08:49:31;99065.13;;;22.61;48.47
73453;BME280;61687;56.232;43.854;2023-07-20T08:52:00;99068.38;;;22.74;48.43
73453;BME280;61687;56.232;43.854;2023-07-20T08:54:30;99065.72;;;23.00;48.22
73453;BME280;61687;56.232;43.854;2023-07-20T08:57:01;99088.16;;;23.21;47.83
73453;BME280;61687;56.232;43.854;2023-07-20T08:59:28;99080.47;;;23.01;46.66
73453;BME280;61687;56.232;43.854;2023-07-20T09:01:58;99079.03;;;22.91;47.01
73453;BME280;61687;56.232;43.854;2023-07-20T09:04:25;99068.34;;;23.04;47.49
73453;BME280;61687;56.232;43.854;2023-07-20T09:06:51;99069.34;;;23.22;47.22
73453;BME280;61687;56.232;43.854;2023-07-20T09:09:17;99071.78;;;23.29;46.39
73453;BME280;61687;56.232;43.854;2023-07-20T09:11:47;99064.03;;;23.24;46.30
73453;BME280;61687;56.232;43.854;2023-07-20T09:14:13;99066.28;;;23.35;46.86
73453;BME280;61687;56.232;43.854;2023-07-20T09:19:16;99067.38;;;23.07;46.89
73453;BME280;61687;56.232;43.854;2023-07-20T09:21:46;99065.94;;;22.82;47.88
73453;BME280;61687;56.232;43.854;2023-07-20T09:24:13;99065.56;;;22.74;48.26
73453;BME280;61687;56.232;43.854;2023-07-20T09:26:46;99070.38;;;22.89;48.65
73453;BME280;61687;56.232;43.854;2023-07-20T09:29:19;99067.97;;;22.66;47.37
73453;BME280;61687;56.232;43.854;2023-07-20T09:32:02;99061.44;;;22.54;47.64
73453;BME280;61687;56.232;43.854;2023-07-20T09:34:31;99058.34;;;22.67;48.60
73453;BME280;61687;56.232;43.854;2023-07-20T09:36:58;99054.88;;;22.87;48.00
73453;BME280;61687;56.232;43.854;2023-07-20T09:39:24;99057.22;;;23.10;46.92
73453;BME280;61687;56.232;43.854;2023-07-20T09:41:51;99063.41;;;23.50;46.40
73453;BME280;61687;56.232;43.854;2023-07-20T09:44:18;99057.81;;;23.70;45.31
73453;BME280;61687;56.232;43.854;2023-07-20T09:46:45;99050.25;;;23.97;43.90
73453;BME280;61687;56.232;43.854;2023-07-20T09:49:11;99062.69;;;23.96;44.06
73453;BME280;61687;56.232;43.854;2023-07-20T09:51:37;99062.16;;;23.92;43.46
73453;BME280;61687;56.232;43.854;2023-07-20T09:54:05;99056.50;;;23.66;43.77
73453;BME280;61687;56.232;43.854;2023-07-20T09:56:32;99048.84;;;23.66;44.27
73453;BME280;61687;56.232;43.854;2023-07-20T09:58:59;99054.13;;;23.58;44.84
73453;BME280;61687;56.232;43.854;2023-07-20T10:01:26;99048.31;;;23.62;45.38
73453;BME280;61687;56.232;43.854;2023-07-20T10:03:54;99066.47;;;23.52;45.89
73453;BME280;61687;56.232;43.854;2023-07-20T10:06:23;99052.75;;;23.33;46.70
73453;BME280;61687;56.232;43.854;2023-07-20T10:08:56;99055.97;;;23.11;46.17
73453;BME280;61687;56.232;43.854;2023-07-20T10:11:27;99061.84;;;23.13;46.40
73453;BME280;61687;56.232;43.854;2023-07-20T10:13:58;99075.06;;;23.12;46.35
73453;BME280;61687;56.232;43.854;2023-07-20T10:16:29;99065.41;;;23.28;46.23
73453;BME280;61687;56.232;43.854;2023-07-20T10:19:03;99062.09;;;23.66;45.64
73453;BME280;61687;56.232;43.854;2023-07-20T10:21:33;99056.88;;;24.21;44.56
73453;BME280;61687;56.232;43.854;2023-07-20T10:24:01;99082.44;;;24.34;43.29
73453;BME280;61687;56.232;43.854;2023-07-20T10:26:28;99084.88;;;24.00;43.66
73453;BME280;61687;56.232;43.854;2023-07-20T10:28:55;99079.75;;;23.98;43.87
73453;BME280;61687;56.232;43.854;2023-07-20T10:31:22;99071.19;;;24.28;43.34
73453;BME280;61687;56.232;43.854;2023-07-20T10:33:49;99078.59;;;24.58;42.64
73453;BME280;61687;56.232;43.854;2023-07-20T10:36:24;99090.84;;;24.87;43.02
73453;BME280;61687;56.232;43.854;2023-07-20T10:38:56;99088.88;;;24.67;43.00
73453;BME280;61687;56.232;43.854;2023-07-20T10:41:34;99086.84;;;24.41;43.43
73453;BME280;61687;56.232;43.854;2023-07-20T10:44:06;99091.03;;;24.25;43.04
73453;BME280;61687;56.232;43.854;2023-07-20T10:49:07;99094.75;;;23.95;43.02
73453;BME280;61687;56.232;43.854;2023-07-20T10:51:41;99097.16;;;24.29;42.30
73453;BME280;61687;56.232;43.854;2023-07-20T10:54:33;99103.09;;;24.37;42.50
73453;BME280;61687;56.232;43.854;2023-07-20T10:57:25;99094.47;;;24.40;42.97
73453;BME280;61687;56.232;43.854;2023-07-20T11:00:07;99096.00;;;23.94;44.05
73453;BME280;61687;56.232;43.854;2023-07-20T11:02:44;99100.88;;;23.79;44.80
73453;BME280;61687;56.232;43.854;2023-07-20T11:05:37;99092.13;;;23.50;45.41
73453;BME280;61687;56.232;43.854;2023-07-20T11:08:04;99093.22;;;23.23;45.83
73453;BME280;61687;56.232;43.854;2023-07-20T11:10:31;99095.59;;;23.09;46.03
73453;BME280;61687;56.232;43.854;2023-07-20T11:13:21;99098.75;;;23.17;46.14
73453;BME280;61687;56.232;43.854;2023-07-20T11:16:02;99103.13;;;23.54;45.60
73453;BME280;61687;56.232;43.854;2023-07-20T11:18:33;99110.44;;;24.34;43.87
73453;BME280;61687;56.232;43.854;2023-07-20T11:20:59;99102.59;;;24.65;43.74
73453;BME280;61687;56.232;43.854;2023-07-20T11:23:25;99107.28;;;24.47;43.09
73453;BME280;61687;56.232;43.854;2023-07-20T11:25:51;99105.22;;;24.21;43.25
73453;BME280;61687;56.232;43.854;2023-07-20T11:28:19;99132.66;;;23.96;43.65
73453;BME280;61687;56.232;43.854;2023-07-20T11:30:51;99138.47;;;23.06;44.80
73453;BME280;61687;56.232;43.854;2023-07-20T11:33:17;99143.22;;;22.45;46.67
73453;BME280;61687;56.232;43.854;2023-07-20T11:35:44;99159.78;;;21.52;51.71
73453;BME280;61687;56.232;43.854;2023-07-20T11:38:12;99170.25;;;20.52;56.20
73453;BME280;61687;56.232;43.854;2023-07-20T11:40:45;99167.38;;;19.37;63.15
73453;BME280;61687;56.232;43.854;2023-07-20T11:43:15;99159.88;;;18.70;65.54
73453;BME280;61687;56.232;43.854;2023-07-20T11:45:41;99146.97;;;18.77;66.09
73453;BME280;61687;56.232;43.854;2023-07-20T11:48:07;99150.63;;;19.18;66.23
73453;BME280;61687;56.232;43.854;2023-07-20T11:50:39;99161.78;;;19.78;66.07
73453;BME280;61687;56.232;43.854;2023-07-20T11:53:06;99157.53;;;20.23;64.95
73453;BME280;61687;56.232;43.854;2023-07-20T11:55:32;99145.69;;;23.13;57.37
73453;BME280;61687;56.232;43.854;2023-07-20T11:58:02;99140.88;;;23.28;57.98
73453;BME280;61687;56.232;43.854;2023-07-20T12:00:28;99138.47;;;22.76;57.38
73453;BME280;61687;56.232;43.854;2023-07-20T12:02:54;99146.44;;;22.53;57.83
73453;BME280;61687;56.232;43.854;2023-07-20T12:05:22;99146.38;;;22.78;56.99
73453;BME280;61687;56.232;43.854;2023-07-20T12:07:49;99148.69;;;22.94;57.63
73453;BME280;61687;56.232;43.854;2023-07-20T12:10:24;99150.91;;;23.05;57.54
73453;BME280;61687;56.232;43.854;2023-07-20T12:12:51;99149.44;;;23.10;56.79
73453;BME280;61687;56.232;43.854;2023-07-20T12:15:24;99143.25;;;23.51;56.88
73453;BME280;61687;56.232;43.854;2023-07-20T12:17:57;99147.25;;;23.65;56.56
73453;BME280;61687;56.232;43.854;2023-07-20T12:20:31;99146.72;;;23.81;54.32
73453;BME280;61687;56.232;43.854;2023-07-20T12:23:07;99143.03;;;24.11;52.13
73453;BME280;61687;56.232;43.854;2023-07-20T12:25:40;99144.53;;;23.70;51.90
73453;BME280;61687;56.232;43.854;2023-07-20T12:28:16;99151.53;;;23.45;52.53
73453;BME280;61687;56.232;43.854;2023-07-20T12:30:44;99144.81;;;23.22;51.73
73453;BME280;61687;56.232;43.854;2023-07-20T12:33:10;99154.06;;;23.13;52.89
73453;BME280;61687;56.232;43.854;2023-07-20T12:35:37;99157.22;;;23.51;51.63
73453;BME280;61687;56.232;43.854;2023-07-20T12:38:03;99162.94;;;25.94;44.97
73453;BME280;61687;56.232;43.854;2023-07-20T12:40:30;99146.63;;;28.26;40.77
73453;BME280;61687;56.232;43.854;2023-07-20T12:42:57;99155.41;;;29.01;37.85
73453;BME280;61687;56.232;43.854;2023-07-20T12:45:24;99153.94;;;29.19;36.77
73453;BME280;61687;56.232;43.854;2023-07-20T12:47:50;99148.72;;;28.09;37.98
73453;BME280;61687;56.232;43.854;2023-07-20T12:50:16;99148.69;;;27.10;40.21
73453;BME280;61687;56.232;43.854;2023-07-20T12:52:42;99159.06;;;26.47;40.33
73453;BME280;61687;56.232;43.854;2023-07-20T12:55:09;99161.63;;;26.50;40.41
73453;BME280;61687;56.232;43.854;2023-07-20T12:57:36;99164.19;;;26.60;40.89
73453;BME280;61687;56.232;43.854;2023-07-20T13:00:04;99159.69;;;26.13;42.04
73453;BME280;61687;56.232;43.854;2023-07-20T13:02:34;99157.25;;;25.39;43.62
73453;BME280;61687;56.232;43.854;2023-07-20T13:05:00;99167.81;;;24.65;46.97
73453;BME280;61687;56.232;43.854;2023-07-20T13:07:39;99162.53;;;24.47;49.09